Latest Weather Observations for Nambour

IDQ60901

Issued at 1:45 pm EST Thursday 23 October 2014 (issued every 10 minutes, with the page automatically refreshed every 10 minutes)

About weather observations | Map of Brisbane area stations | Latest observations for Brisbane area | Other Formats
Station Details ID: 040988 Name: NAMBOUR DAFF - HILLSIDE Lat: -26.64 Lon: 152.94 Height: 53.24 m
Data from the previous 72 hours. | See also: Recent months at Nambour
Date/Time
EST
Tmp

°C
App
Tmp
°C
Dew
Point
°C
Rel
Hum
%
Delta-T

°C
Wind Press
QNH
hPa
Press
MSL
hPa
Rain
since
9 am
mm
Dir
 
Spd
km/h
Gust
km/h
Spd
kts
Gust
kts
23/01:30pm 24.7 23.2 13.0 48 6.8 E 13 22 7 12 1018.9 1018.7 0.0
23/01:00pm 24.6 22.8 12.2 46 7.1 ENE 13 22 7 12 1019.3 1019.1 0.0
23/12:30pm 25.1 23.1 12.7 46 7.2 ENE 15 22 8 12 1019.6 1019.4 0.0
23/12:00pm 24.7 22.9 10.9 42 7.7 ENE 11 22 6 12 1020.2 1020.0 0.0
23/11:30am 24.8 23.7 9.9 39 8.2 N 6 9 3 5 1020.8 1020.7 0.0
23/11:00am 25.1 24.8 11.6 42 7.6 S 4 9 2 5 1021.4 1021.3 0.0
23/10:30am 24.2 23.7 10.8 43 7.5 W 4 9 2 5 1021.8 1021.7 0.0
23/10:00am 23.1 22.0 10.5 45 6.9 E 7 15 4 8 1022.2 1022.1 0.0
23/09:30am 22.8 21.8 10.9 47 6.6 SSE 7 11 4 6 1022.5 1022.4 0.0
23/09:00am 21.6 20.3 10.1 48 6.2 SE 7 15 4 8 1022.6 1022.5 0.0
23/08:30am 21.6 20.6 10.4 49 6.1 ESE 6 9 3 5 1022.7 1022.6 0.0
23/08:00am 21.5 20.7 11.2 52 5.7 ESE 6 11 3 6 1022.6 1022.5 0.0
23/07:30am 20.3 19.9 11.0 55 5.1 NE 4 7 2 4 1022.6 1022.5 0.0
23/07:00am 18.2 19.1 12.9 71 3.0 CALM 0 0 0 0 1022.6 1022.5 0.0
23/06:30am 15.9 16.7 12.6 81 1.8 CALM 0 0 0 0 1022.4 1022.3 0.0
23/06:00am 13.8 14.6 12.4 91 0.8 CALM 0 0 0 0 1022.3 1022.2 0.0
23/05:30am 12.8 13.4 11.9 94 0.5 CALM 0 0 0 0 1022.3 1022.2 0.0
23/05:00am 12.6 13.1 11.5 93 0.6 CALM 0 0 0 0 1022.1 1022.0 0.0
23/04:30am 12.9 13.4 11.6 92 0.7 CALM 0 0 0 0 1021.9 1021.8 0.0
23/04:00am 13.2 13.9 12.1 93 0.6 CALM 0 0 0 0 1021.7 1021.6 0.0
23/03:30am 13.0 13.6 11.9 93 0.6 CALM 0 0 0 0 1021.6 1021.5 0.0
23/03:00am 13.1 13.7 11.8 92 0.7 CALM 0 0 0 0 1021.5 1021.4 0.0
23/02:30am 13.4 14.1 12.1 92 0.7 CALM 0 0 0 0 1021.5 1021.4 0.0
23/02:00am 13.6 14.1 11.7 88 1.0 CALM 0 0 0 0 1021.7 1021.6 0.0
23/01:30am 14.0 14.6 12.0 88 1.1 CALM 0 0 0 0 1021.8 1021.7 0.0
23/01:00am 14.4 15.1 12.1 86 1.2 CALM 0 0 0 0 1022.1 1022.0 0.0
23/12:30am 14.6 15.3 12.1 85 1.4 CALM 0 0 0 0 1022.4 1022.3 0.0
23/12:00am 15.0 15.7 12.1 83 1.6 W 0 0 0 0 1022.8 1022.7 0.0
 
Date/Time
EST
Tmp

°C
App
Tmp
°C
Dew
Point
°C
Rel
Hum
%
Delta-T

°C
Wind Press
QNH
hPa
Press
MSL
hPa
Rain
since
9 am
mm
Dir
 
Spd
km/h
Gust
km/h
Spd
kts
Gust
kts
22/11:30pm 15.1 15.9 12.4 84 1.5 CALM 0 0 0 0 1023.1 1023.0 0.0
22/11:00pm 15.1 15.8 12.2 83 1.6 CALM 0 0 0 0 1023.5 1023.4 0.0
22/10:30pm 15.1 15.8 12.2 83 1.6 CALM 0 0 0 0 1023.5 1023.4 0.0
22/10:00pm 15.1 15.8 12.2 83 1.6 CALM 0 0 0 0 1023.6 1023.5 0.0
22/09:30pm 15.4 16.1 12.3 82 1.7 CALM 0 0 0 0 1023.7 1023.6 0.0
22/09:00pm 15.1 15.5 11.3 78 2.0 CALM 0 0 0 0 1023.8 1023.7 0.0
22/08:30pm 16.0 16.6 11.8 76 2.3 CALM 0 0 0 0 1023.6 1023.5 0.0
22/08:00pm 16.9 17.5 11.8 72 2.8 CALM 0 0 0 0 1023.5 1023.4 0.0
22/07:30pm 17.2 17.9 12.1 72 2.8 CALM 0 0 0 0 1023.5 1023.4 0.0
22/07:00pm 17.1 16.8 11.4 69 3.1 WSW 4 6 2 3 1023.3 1023.2 0.0
22/06:30pm 17.8 18.2 11.4 66 3.5 CALM 0 2 0 1 1023.2 1023.1 0.0
22/06:00pm 19.0 19.1 11.6 62 4.1 SE 2 4 1 2 1023.1 1023.0 0.0
22/05:30pm 19.5 18.5 11.0 58 4.6 ESE 7 13 4 7 1022.9 1022.8 0.0
22/05:00pm 20.0 19.1 11.2 57 4.8 ESE 7 13 4 7 1022.8 1022.7 0.0
22/04:30pm 20.5 18.8 11.2 55 5.1 E 11 22 6 12 1022.6 1022.5 0.0
22/04:00pm 21.2 20.0 11.5 54 5.4 ESE 9 15 5 8 1022.5 1022.4 0.0
22/03:30pm 21.0 18.9 11.1 53 5.5 E 13 22 7 12 1022.5 1022.4 0.0
22/03:00pm 21.0 18.5 11.1 53 5.4 E 15 26 8 14 1022.4 1022.3 0.0
22/02:30pm 21.8 19.9 10.6 49 6.2 ESE 11 19 6 10 1022.5 1022.4 0.0
22/02:00pm 21.9 20.0 10.4 48 6.3 E 11 24 6 13 1022.8 1022.7 0.0
22/01:30pm 22.5 20.5 11.6 50 6.1 ESE 13 22 7 12 1022.9 1022.8 0.0
22/01:00pm 22.7 21.6 12.0 50 6.0 E 9 24 5 13 1023.3 1023.2 0.0
22/12:30pm 22.4 20.4 11.5 50 6.1 ESE 13 22 7 12 1023.7 1023.6 0.0
22/12:00pm 21.8 20.3 11.8 53 5.6 ESE 11 19 6 10 1024.2 1024.1 0.0
22/11:30am 21.9 20.6 11.3 51 5.9 E 9 19 5 10 1024.5 1024.4 0.0
22/11:00am 21.2 20.1 11.8 55 5.2 SE 9 19 5 10 1024.9 1024.8 0.0
22/10:30am 22.1 20.9 11.5 51 5.9 ESE 9 24 5 13 1025.1 1025.0 0.0
22/10:00am 21.6 20.3 12.5 56 5.1 ESE 11 20 6 11 1025.2 1025.1 0.0
22/09:30am 21.9 21.4 12.7 56 5.2 SE 7 19 4 10 1025.3 1025.2 0.0
22/09:00am 20.8 20.1 13.3 62 4.3 E 9 24 5 13 1025.4 1025.3 2.2
22/08:30am 20.1 20.9 14.7 71 3.2 ESE 4 13 2 7 1025.5 1025.4 2.2
22/08:00am 18.5 18.9 13.8 74 2.7 SW 4 11 2 6 1025.5 1025.4 2.2
22/07:30am 17.8 18.2 13.7 77 2.3 S 4 9 2 5 1025.2 1025.1 2.2
22/07:00am 17.0 17.7 13.5 80 2.0 WSW 2 6 1 3 1025.0 1024.9 2.2
22/06:30am 16.4 16.9 14.1 86 1.3 WSW 4 9 2 5 1024.8 1024.7 2.2
22/06:00am 15.6 16.1 14.0 90 0.9 WSW 4 7 2 4 1024.6 1024.5 2.2
22/05:30am 15.4 15.0 14.1 92 0.7 SW 9 15 5 8 1024.5 1024.4 2.0
22/05:00am 15.8 16.3 14.0 89 1.0 SW 4 13 2 7 1024.3 1024.2 2.0
22/04:30am 15.3 16.5 13.7 90 0.9 CALM 0 2 0 1 1024.0 1023.9 2.0
22/04:00am 15.7 16.7 14.4 92 0.7 WSW 2 7 1 4 1024.2 1024.1 2.0
22/03:30am 15.8 16.8 14.3 91 0.9 SSE 2 7 1 4 1024.2 1024.1 1.8
22/03:00am 16.4 17.1 14.4 88 1.1 SSW 4 9 2 5 1024.3 1024.2 1.6
22/02:30am 16.1 17.0 14.1 88 1.1 SW 2 6 1 3 1024.5 1024.4 1.6
22/02:00am 16.5 16.6 13.8 84 1.5 WSW 6 11 3 6 1024.9 1024.8 1.4
22/01:30am 16.9 17.7 13.6 81 1.9 SW 2 9 1 5 1025.1 1025.0 1.4
22/01:00am 17.2 17.5 13.5 79 2.1 WSW 4 13 2 7 1025.5 1025.4 1.4
22/12:30am 17.7 18.2 14.0 79 2.1 W 4 15 2 8 1025.9 1025.8 1.4
22/12:00am 18.0 18.9 14.1 78 2.2 S 2 7 1 4 1026.2 1026.1 1.2
 
Date/Time
EST
Tmp

°C
App
Tmp
°C
Dew
Point
°C
Rel
Hum
%
Delta-T

°C
Wind Press
QNH
hPa
Press
MSL
hPa
Rain
since
9 am
mm
Dir
 
Spd
km/h
Gust
km/h
Spd
kts
Gust
kts
21/11:30pm 18.4 18.8 13.7 74 2.7 SW 4 7 2 4 1026.5 1026.4 1.2
21/11:00pm 18.6 18.7 13.9 74 2.7 SE 6 19 3 10 1026.9 1026.8 1.2
21/10:30pm 18.6 19.6 14.3 76 2.5 ENE 2 7 1 4 1027.0 1026.9 1.2
21/10:00pm 18.6 18.8 14.3 76 2.5 ESE 6 11 3 6 1027.1 1027.0 1.2
21/09:30pm 18.2 19.0 14.7 80 2.0 SE 4 9 2 5 1027.3 1027.2 1.2
21/09:00pm 18.1 18.7 15.2 83 1.7 E 6 7 3 4 1027.1 1027.0 1.2
21/08:30pm 18.7 19.0 14.6 77 2.4 ESE 6 13 3 7 1026.9 1026.8 1.2
21/08:00pm 18.8 20.0 14.9 78 2.3 ENE 2 7 1 4 1026.6 1026.5 1.2
21/07:30pm 18.4 19.7 15.1 81 1.9 E 2 7 1 4 1026.6 1026.5 1.2
21/07:00pm 19.2 20.3 14.7 75 2.6 SSW 2 7 1 4 1026.3 1026.2 0.8
21/06:30pm 19.4 20.5 15.7 79 2.2 SSE 4 11 2 6 1026.1 1026.0 0.8
21/06:00pm 19.7 20.4 15.6 77 2.4 ESE 6 19 3 10 1025.8 1025.7 0.8
21/05:30pm 20.2 20.7 15.6 75 2.7 ESE 7 13 4 7 1025.6 1025.5 0.8
21/05:00pm 20.7 20.4 15.5 72 3.1 ESE 11 24 6 13 1025.3 1025.2 0.8
21/04:30pm 21.9 21.9 15.3 66 3.9 E 9 20 5 11 1024.8 1024.7 0.8
21/04:00pm 22.5 22.6 15.4 64 4.2 E 9 26 5 14 1024.5 1024.4 0.8
21/03:30pm 23.6 23.1 14.9 58 5.2 ESE 11 32 6 17 1024.2 1024.1 0.8
21/03:00pm 23.3 23.0 14.3 57 5.3 ESE 9 20 5 11 1024.1 1024.0 0.8
21/02:30pm 23.1 23.4 15.9 64 4.4 E 9 24 5 13 1024.3 1024.2 0.8
21/02:00pm 22.0 22.3 16.1 69 3.6 E 9 17 5 9 1024.6 1024.5 0.8
21/01:30pm 22.6 22.5 15.9 66 4.0 E 11 28 6 15 1024.8 1024.7 0.8
21/01:00pm 21.2 21.9 16.2 73 3.0 SSE 7 20 4 11 1025.2 1025.1 0.8
21/12:30pm 20.6 21.7 16.6 78 2.4 ESE 6 17 3 9 1025.7 1025.6 0.8
21/12:00pm 21.4 22.9 16.6 74 2.9 SSE 4 9 2 5 1025.9 1025.8 0.4
21/11:30am 21.6 22.8 16.8 74 2.9 SSE 6 13 3 7 1026.3 1026.2 0.4
21/11:00am 20.4 22.3 18.5 89 1.2 SE 6 13 3 7 1026.7 1026.6 0.4
21/10:30am 19.0 20.9 17.7 92 0.8 ESE 4 7 2 4 1027.0 1026.9 0.2
21/10:00am 18.8 19.9 17.1 90 1.0 SE 7 22 4 12 1027.2 1027.1 0.2
21/09:30am 19.4 20.2 15.9 80 2.1 SE 6 13 3 7 1027.3 1027.2 0.0
21/09:00am 21.4 22.9 16.6 74 2.9 WSW 4 13 2 7 1027.1 1027.0 0.2
21/08:30am 19.6 20.8 15.9 79 2.2 SW 4 9 2 5 1027.1 1027.0 0.2
21/08:00am 19.0 19.9 16.2 84 1.7 SW 6 9 3 5 1027.1 1027.0 0.2
21/07:30am 18.4 18.8 14.7 79 2.1 E 6 9 3 5 1026.7 1026.6 0.2
21/07:00am 17.5 19.4 15.7 89 1.1 CALM 0 7 0 4 1026.3 1026.2 0.2
21/06:30am 16.2 17.8 14.9 92 0.8 CALM 0 0 0 0 1025.9 1025.8 0.2
21/06:00am 15.1 16.4 14.0 93 0.6 CALM 0 0 0 0 1025.6 1025.5 0.2
21/05:30am 14.5 15.5 13.2 92 0.7 CALM 0 0 0 0 1025.4 1025.3 0.2
21/05:00am 14.1 15.0 12.8 92 0.7 CALM 0 0 0 0 1025.0 1024.9 0.2
21/04:30am 14.3 15.2 13.0 92 0.7 CALM 0 0 0 0 1024.8 1024.7 0.2
21/04:00am 14.4 15.2 12.6 89 1.0 CALM 0 0 0 0 1024.6 1024.5 0.2
21/03:30am 14.6 15.5 12.8 89 1.0 CALM 0 0 0 0 1024.8 1024.7 0.2
21/03:00am 15.0 15.9 13.0 88 1.1 CALM 0 0 0 0 1025.1 1025.0 0.2
21/02:30am 15.2 15.6 12.5 84 1.5 SW 2 6 1 3 1025.1 1025.0 0.2
21/02:00am 15.4 16.2 12.7 84 1.5 CALM 0 0 0 0 1025.2 1025.1 0.2
21/01:30am 15.6 16.4 12.7 83 1.6 CALM 0 0 0 0 1025.5 1025.4 0.2
21/01:00am 15.7 16.5 12.5 81 1.8 CALM 0 0 0 0 1025.8 1025.7 0.2
21/12:30am 16.4 17.4 13.1 81 1.8 CALM 0 2 0 1 1026.1 1026.0 0.2
21/12:00am 16.2 17.0 12.7 80 1.9 CALM 0 0 0 0 1026.4 1026.3 0.2
 
Date/Time
EST
Tmp

°C
App
Tmp
°C
Dew
Point
°C
Rel
Hum
%
Delta-T

°C
Wind Press
QNH
hPa
Press
MSL
hPa
Rain
since
9 am
mm
Dir
 
Spd
km/h
Gust
km/h
Spd
kts
Gust
kts
20/11:30pm 16.6 17.5 12.9 79 2.1 CALM 0 0 0 0 1026.6 1026.5 0.2
20/11:00pm 16.9 17.9 13.2 79 2.1 CALM 0 0 0 0 1026.7 1026.6 0.2
20/10:30pm 16.3 17.3 13.2 82 1.7 CALM 0 0 0 0 1026.8 1026.7 0.2
20/10:00pm 15.6 16.4 12.4 81 1.7 CALM 0 2 0 1 1026.8 1026.7 0.2
20/09:30pm 16.3 17.0 12.3 77 2.2 CALM 0 0 0 0 1026.5 1026.4 0.2
20/09:00pm 16.8 17.6 12.5 76 2.4 CALM 0 0 0 0 1026.3 1026.2 0.2
20/08:30pm 16.6 17.4 12.6 77 2.2 CALM 0 0 0 0 1026.0 1025.9 0.2
20/08:00pm 16.2 16.9 12.2 77 2.2 CALM 0 0 0 0 1025.5 1025.4 0.2
20/07:30pm 17.1 17.8 12.2 73 2.7 CALM 0 0 0 0 1025.0 1024.9 0.2
20/07:00pm 18.5 19.1 12.0 66 3.6 CALM 0 0 0 0 1024.5 1024.4 0.2
20/06:30pm 19.4 19.7 12.2 63 4.0 ESE 2 6 1 3 1024.2 1024.1 0.2
20/06:00pm 20.1 19.9 11.8 59 4.6 ESE 4 7 2 4 1023.6 1023.5 0.2
20/05:30pm 20.8 20.0 11.2 54 5.3 E 6 9 3 5 1023.1 1023.0 0.2
20/05:00pm 21.9 20.9 11.0 50 6.0 E 7 11 4 6 1022.7 1022.6 0.2
20/04:30pm 22.6 21.1 10.7 47 6.6 E 9 15 5 8 1022.4 1022.3 0.2
20/04:00pm 23.2 21.5 11.3 47 6.6 E 11 17 6 9 1022.3 1022.2 0.2
20/03:30pm 23.5 21.6 11.9 48 6.6 E 13 19 7 10 1022.1 1022.0 0.2
20/03:00pm 24.0 22.2 12.0 47 6.8 ENE 13 19 7 10 1021.9 1021.8 0.2
20/02:30pm 24.2 22.2 11.5 45 7.2 E 13 22 7 12 1022.1 1022.0 0.2
20/02:00pm 24.3 22.6 12.3 47 6.9 E 13 24 7 13 1022.2 1022.1 0.2

Latest Capital City Observations: Canberra | Sydney | Melbourne | Brisbane | Adelaide | Perth | Hobart | Darwin

Other Formats:

Comma delimited format used in spreadsheet applications
http://www.bom.gov.au/fwo/IDQ60901/IDQ60901.95572.axf

JavaScript Object Notation format (JSON) in row-major order
http://www.bom.gov.au/fwo/IDQ60901/IDQ60901.95572.json